METAR Data

Data at: 2336 UTC 26 Feb 2020

METAR for:KIZG (Fryeburg/Eastern Slo, ME, US)
Text:KIZG 262254Z AUTO 00000KT 10SM BKN042 OVC060 05/M02 A3000 RMK AO2 SLP163 T00501022
Temperature: 5.0°C ( 41°F)
Dewpoint: -2.2°C ( 28°F) [RH = 60%]
Pressure (altimeter):30.00 inches Hg (1016.0 mb) [Sea level pressure: 1016.3 mb]
Winds:calm
Visibility:10 or more sm (16+ km)
Ceiling:4200 feet AGL
Clouds: broken clouds at 4200 feet AGL, overcast cloud deck at 6000 feet AGL
QC Flag:automated observation with no human augmentation